Search for airport 
image banner adimage banner adimage banner ad
image banner ad

KEMT - San Gabriel Valley

Located in El Monte, United States

ICAO - EMT, IATA - EMT

Data provided by Airmate  

General information

Coordinates: N34°5'10" W118°2'5"
Elevation is 296 feet MSL.
Magnetic variation is 14° East
View others Airports in California

Operational data

Special qualification required
Current time UTC:
Current local time:
Weather
METAR: KEMT 291445Z 00000KT 10SM CLR 21/15 A2995
View NOTAMs / SUP AIP / TFR affecting this airport [VIEW]
Communications frequencies: [VIEW]

Runways:

RWY identifierQFULength (ft)Width (ft)SurfaceLDA (ft)
0125°399575ASPH3465
19205°399575ASPH3354

Airport contact information

Address: El Monte United States

Other aviation service providers

Flight schools

Universal Air Academy

Universal Air Academy

So Cal Flying Club

So Cal Flying Club

Aerial Sim Training

Aerial Sim Training

Satellite view of KEMT